Time,TemperatureF,DewpointF,PressureIn,WindDirection,WindDirectionDegrees,WindSpeedMPH,WindSpeedGustMPH,Humidity,HourlyPrecipIn,Conditions,Clouds,dailyrainin,SoftwareType,DateUTC
2013-03-25 00:02:00,37.4,36.9,29.36,NNE,22,1.6,-999.0,98,-99.99,,,0.00,Acu-Link.com,2013-03-25 04:02:00,
2013-03-25 00:17:00,37.4,36.9,29.36,NE,45,2.7,-999.0,98,-99.99,,,0.00,Acu-Link.com,2013-03-25 04:17:00,
2013-03-25 00:32:00,37.4,36.9,29.36,ENE,67,1.1,-999.0,98,-99.99,,,0.00,Acu-Link.com,2013-03-25 04:32:00,
2013-03-25 00:47:00,37.4,36.9,29.36,SE,135,1.1,-999.0,98,-99.99,,,0.00,Acu-Link.com,2013-03-25 04:47:00,
2013-03-25 01:03:00,37.4,36.9,29.36,ENE,67,0.0,-999.0,98,-99.99,,,0.00,Acu-Link.com,2013-03-25 05:03:00,
2013-03-25 01:18:00,37.4,37.1,29.35,South,180,0.0,-999.0,99,-99.99,,,0.01,Acu-Link.com,2013-03-25 05:18:00,
2013-03-25 01:33:00,37.4,37.1,29.35,North,0,1.6,-999.0,99,-99.99,,,0.01,Acu-Link.com,2013-03-25 05:33:00,
2013-03-25 01:49:00,37.4,37.1,29.35,North,0,0.0,-999.0,99,-99.99,,,0.02,Acu-Link.com,2013-03-25 05:49:00,
2013-03-25 02:04:00,37.4,37.1,29.35,East,90,1.6,-999.0,99,-99.99,,,0.02,Acu-Link.com,2013-03-25 06:04:00,
2013-03-25 02:19:00,37.4,37.1,29.34,ENE,67,1.6,-999.0,99,-99.99,,,0.02,Acu-Link.com,2013-03-25 06:19:00,
2013-03-25 02:34:00,37.4,37.1,29.34,ESE,112,1.6,-999.0,99,-99.99,,,0.02,Acu-Link.com,2013-03-25 06:34:00,
2013-03-25 02:49:00,37.4,37.1,29.34,NE,45,1.6,-999.0,99,-99.99,,,0.02,Acu-Link.com,2013-03-25 06:49:00,
2013-03-25 03:05:00,37.4,37.1,29.33,West,270,0.0,-999.0,99,-99.99,,,0.02,Acu-Link.com,2013-03-25 07:05:00,
2013-03-25 03:20:00,37.4,37.1,29.33,North,0,1.6,-999.0,99,-99.99,,,0.02,Acu-Link.com,2013-03-25 07:20:00,
2013-03-25 03:35:00,35.6,35.3,29.33,ESE,112,1.6,-999.0,99,-99.99,,,0.02,Acu-Link.com,2013-03-25 07:35:00,
2013-03-25 03:50:00,35.6,35.3,29.33,NE,45,1.6,-999.0,99,-99.99,,,0.02,Acu-Link.com,2013-03-25 07:50:00,
2013-03-25 04:06:00,35.6,35.3,29.33,NNE,22,1.1,-999.0,99,-99.99,,,0.02,Acu-Link.com,2013-03-25 08:06:00,
2013-03-25 04:22:00,35.6,35.3,29.33,NNE,22,0.0,-999.0,99,-99.99,,,0.04,Acu-Link.com,2013-03-25 08:22:00,
2013-03-25 04:37:00,35.6,35.3,29.33,NE,45,0.0,-999.0,99,-99.99,,,0.05,Acu-Link.com,2013-03-25 08:37:00,
2013-03-25 04:52:00,35.6,35.3,29.33,NNW,337,0.0,-999.0,99,-99.99,,,0.05,Acu-Link.com,2013-03-25 08:52:00,
2013-03-25 05:07:00,35.6,35.3,29.33,ENE,67,0.0,-999.0,99,-99.99,,,0.06,Acu-Link.com,2013-03-25 09:07:00,
2013-03-25 05:22:00,35.6,35.3,29.32,North,0,0.0,-999.0,99,-99.99,,,0.06,Acu-Link.com,2013-03-25 09:22:00,
2013-03-25 05:37:00,35.6,35.3,29.32,ESE,112,0.0,-999.0,99,-99.99,,,0.06,Acu-Link.com,2013-03-25 09:37:00,
2013-03-25 05:53:00,35.6,35.3,29.32,SE,135,1.6,-999.0,99,-99.99,,,0.06,Acu-Link.com,2013-03-25 09:53:00,
2013-03-25 06:08:00,35.6,35.3,29.32,ESE,112,0.0,-999.0,99,-99.99,,,0.06,Acu-Link.com,2013-03-25 10:08:00,
2013-03-25 06:23:00,35.6,35.3,29.33,NNW,337,0.0,-999.0,99,-99.99,,,0.06,Acu-Link.com,2013-03-25 10:23:00,
2013-03-25 06:39:00,35.6,35.3,29.34,NNW,337,0.0,-999.0,99,-99.99,,,0.06,Acu-Link.com,2013-03-25 10:39:00,
2013-03-25 06:54:00,35.6,35.3,29.34,East,90,0.0,-999.0,99,-99.99,,,0.06,Acu-Link.com,2013-03-25 10:54:00,
2013-03-25 07:09:00,35.6,35.3,29.34,SW,225,0.0,-999.0,99,-99.99,,,0.06,Acu-Link.com,2013-03-25 11:09:00,
2013-03-25 07:25:00,35.6,35.3,29.35,SW,225,0.0,-999.0,99,-99.99,,,0.06,Acu-Link.com,2013-03-25 11:25:00,
2013-03-25 07:40:00,37.4,37.1,29.35,WNW,292,1.6,-999.0,99,-99.99,,,0.06,Acu-Link.com,2013-03-25 11:40:00,
2013-03-25 07:55:00,37.4,37.1,29.35,WNW,292,0.0,-999.0,99,-99.99,,,0.06,Acu-Link.com,2013-03-25 11:55:00,
2013-03-25 08:10:00,37.4,37.1,29.35,West,270,1.1,-999.0,99,-99.99,,,0.06,Acu-Link.com,2013-03-25 12:10:00,
2013-03-25 08:56:00,41.0,39.4,29.37,SW,225,1.6,-999.0,94,-99.99,,,0.06,Acu-Link.com,2013-03-25 12:56:00,
2013-03-25 09:11:00,42.8,38.3,29.37,SSW,202,5.1,-999.0,84,-99.99,,,0.06,Acu-Link.com,2013-03-25 13:11:00,
2013-03-25 09:27:00,42.8,35.8,29.38,SSE,157,4.0,-999.0,76,-99.99,,,0.06,Acu-Link.com,2013-03-25 13:27:00,
2013-03-25 09:42:00,44.6,35.1,29.38,WNW,292,4.0,-999.0,69,-99.99,,,0.06,Acu-Link.com,2013-03-25 13:42:00,
2013-03-25 10:13:00,42.8,29.9,29.40,WNW,292,2.7,-999.0,60,-99.99,,,0.06,Acu-Link.com,2013-03-25 14:13:00,
2013-03-25 10:28:00,42.8,30.7,29.40,NW,315,3.6,-999.0,62,-99.99,,,0.06,Acu-Link.com,2013-03-25 14:28:00,
2013-03-25 10:43:00,42.8,31.9,29.40,South,180,2.0,-999.0,65,-99.99,,,0.06,Acu-Link.com,2013-03-25 14:43:00,
2013-03-25 10:59:00,46.4,32.4,29.41,WSW,247,3.1,-999.0,58,-99.99,,,0.06,Acu-Link.com,2013-03-25 14:59:00,
2013-03-25 11:14:00,44.6,28.1,29.41,WNW,292,3.6,-999.0,52,-99.99,,,0.06,Acu-Link.com,2013-03-25 15:14:00,
2013-03-25 11:29:00,44.6,29.9,29.41,SSW,202,4.7,-999.0,56,-99.99,,,0.06,Acu-Link.com,2013-03-25 15:29:00,
2013-03-25 11:44:00,50.0,30.6,29.42,West,270,2.7,-999.0,47,-99.99,,,0.06,Acu-Link.com,2013-03-25 15:44:00,
2013-03-25 12:00:00,46.4,27.8,29.43,SSW,202,1.6,-999.0,48,-99.99,,,0.06,Acu-Link.com,2013-03-25 16:00:00,
2013-03-25 12:15:00,50.0,29.5,29.43,WNW,292,2.0,-999.0,45,-99.99,,,0.06,Acu-Link.com,2013-03-25 16:15:00,
2013-03-25 12:30:00,46.4,27.3,29.43,WNW,292,2.7,-999.0,47,-99.99,,,0.06,Acu-Link.com,2013-03-25 16:30:00,
2013-03-25 12:46:00,46.4,28.3,29.44,WNW,292,4.7,-999.0,49,-99.99,,,0.06,Acu-Link.com,2013-03-25 16:46:00,
2013-03-25 13:16:00,44.6,26.1,29.45,NW,315,4.0,-999.0,48,-99.99,,,0.06,Acu-Link.com,2013-03-25 17:16:00,
2013-03-25 13:32:00,46.4,25.7,29.45,WSW,247,2.7,-999.0,44,-99.99,,,0.06,Acu-Link.com,2013-03-25 17:32:00,
2013-03-25 13:47:00,44.6,25.6,29.45,West,270,3.6,-999.0,47,-99.99,,,0.06,Acu-Link.com,2013-03-25 17:47:00,
2013-03-25 14:02:00,44.6,25.1,29.44,SSE,157,2.7,-999.0,46,-99.99,,,0.06,Acu-Link.com,2013-03-25 18:02:00,
2013-03-25 14:32:00,48.2,27.3,29.44,West,270,2.7,-999.0,44,-99.99,,,0.06,Acu-Link.com,2013-03-25 18:32:00,
2013-03-25 14:48:00,48.2,26.2,29.44,West,270,3.1,-999.0,42,-99.99,,,0.06,Acu-Link.com,2013-03-25 18:48:00,
2013-03-25 15:03:00,46.4,26.2,29.43,NNW,337,4.7,-999.0,45,-99.99,,,0.06,Acu-Link.com,2013-03-25 19:03:00,
2013-03-25 15:18:00,46.4,24.6,29.43,WSW,247,6.3,-999.0,42,-99.99,,,0.06,Acu-Link.com,2013-03-25 19:18:00,
2013-03-25 15:34:00,46.4,24.6,29.43,SSW,202,5.6,-999.0,42,-99.99,,,0.06,Acu-Link.com,2013-03-25 19:34:00,
2013-03-25 16:04:00,50.0,28.4,29.44,West,270,6.7,-999.0,43,-99.99,,,0.06,Acu-Link.com,2013-03-25 20:04:00,
2013-03-25 16:19:00,50.0,27.2,29.44,WSW,247,6.3,-999.0,41,-99.99,,,0.06,Acu-Link.com,2013-03-25 20:19:00,
2013-03-25 16:35:00,50.0,26.0,29.44,NNE,22,2.7,-999.0,39,-99.99,,,0.06,Acu-Link.com,2013-03-25 20:35:00,
2013-03-25 16:50:00,50.0,27.8,29.45,South,180,5.6,-999.0,42,-99.99,,,0.06,Acu-Link.com,2013-03-25 20:50:00,
2013-03-25 17:05:00,46.4,24.0,29.46,NNE,22,4.0,-999.0,41,-99.99,,,0.06,Acu-Link.com,2013-03-25 21:05:00,
2013-03-25 17:20:00,46.4,22.8,29.46,SW,225,3.6,-999.0,39,-99.99,,,0.06,Acu-Link.com,2013-03-25 21:20:00,
2013-03-25 17:35:00,48.2,23.2,29.47,West,270,3.1,-999.0,37,-99.99,,,0.06,Acu-Link.com,2013-03-25 21:35:00,
2013-03-25 17:50:00,46.4,23.4,29.47,SSW,202,3.1,-999.0,40,-99.99,,,0.06,Acu-Link.com,2013-03-25 21:50:00,
2013-03-25 18:21:00,44.6,22.9,29.48,SW,225,5.6,-999.0,42,-99.99,,,0.06,Acu-Link.com,2013-03-25 22:21:00,
2013-03-25 18:52:00,42.8,24.5,29.50,West,270,2.7,-999.0,48,-99.99,,,0.06,Acu-Link.com,2013-03-25 22:52:00,
2013-03-25 19:07:00,41.0,23.3,29.51,WSW,247,3.1,-999.0,49,-99.99,,,0.06,Acu-Link.com,2013-03-25 23:07:00,
2013-03-25 19:37:00,41.0,24.7,29.54,WNW,292,3.1,-999.0,52,-99.99,,,0.06,Acu-Link.com,2013-03-25 23:37:00,
2013-03-25 19:53:00,41.0,24.7,29.55,WSW,247,2.7,-999.0,52,-99.99,,,0.06,Acu-Link.com,2013-03-25 23:53:00,
2013-03-25 20:08:00,39.2,22.6,29.55,North,0,5.6,-999.0,51,-99.99,,,0.06,Acu-Link.com,2013-03-26 00:08:00,
2013-03-25 20:23:00,39.2,24.0,29.56,South,180,4.0,-999.0,54,-99.99,,,0.06,Acu-Link.com,2013-03-26 00:23:00,
2013-03-25 20:38:00,37.4,22.3,29.57,WNW,292,1.6,-999.0,54,-99.99,,,0.06,Acu-Link.com,2013-03-26 00:38:00,
2013-03-25 20:53:00,37.4,23.6,29.59,SSW,202,2.7,-999.0,57,-99.99,,,0.06,Acu-Link.com,2013-03-26 00:53:00,
2013-03-25 21:09:00,37.4,24.0,29.59,WNW,292,3.1,-999.0,58,-99.99,,,0.06,Acu-Link.com,2013-03-26 01:09:00,
2013-03-25 21:24:00,37.4,24.4,29.60,SSW,202,3.6,-999.0,59,-99.99,,,0.06,Acu-Link.com,2013-03-26 01:24:00,
2013-03-25 21:39:00,37.4,25.2,29.61,West,270,2.7,-999.0,61,-99.99,,,0.06,Acu-Link.com,2013-03-26 01:39:00,
2013-03-25 21:54:00,37.4,24.8,29.62,West,270,3.6,-999.0,60,-99.99,,,0.06,Acu-Link.com,2013-03-26 01:54:00,
2013-03-25 22:09:00,35.6,23.5,29.61,SSW,202,2.0,-999.0,61,-99.99,,,0.06,Acu-Link.com,2013-03-26 02:09:00,
2013-03-25 22:25:00,35.6,24.6,29.62,NW,315,2.0,-999.0,64,-99.99,,,0.06,Acu-Link.com,2013-03-26 02:25:00,
2013-03-25 22:40:00,35.6,24.3,29.63,WSW,247,1.6,-999.0,63,-99.99,,,0.06,Acu-Link.com,2013-03-26 02:40:00,
2013-03-25 22:55:00,35.6,24.3,29.63,West,270,1.6,-999.0,63,-99.99,,,0.06,Acu-Link.com,2013-03-26 02:55:00,
2013-03-25 23:11:00,35.6,24.6,29.64,SSW,202,1.6,-999.0,64,-99.99,,,0.06,Acu-Link.com,2013-03-26 03:11:00,
2013-03-25 23:41:00,33.8,24.0,29.64,SSW,202,1.1,-999.0,67,-99.99,,,0.06,Acu-Link.com,2013-03-26 03:41:00,
2013-03-25 23:56:00,33.8,24.0,29.64,WNW,292,1.1,-999.0,67,-99.99,,,0.06,Acu-Link.com,2013-03-26 03:56:00,